Shanghai Pudong International Airport
ZSPD : now visible

Airfield :











YOU CAN JOIN US ON...

 
LOGIN :

Register | Disclaimer

   EN    FR    IT 

 









Legend :    VFR   Marginal VFR   IFR   Intensive IFR   Very Intensive IFR
Visi :
Ceiling :
>= 8 km
>= 3000ft
5 to 8 km
1000 to 3000 ft
1500m to 5 km
500 to 1000 ft
800 to 1500m
200 to 500 ft
< 800m
< 200 ft
Symbols :   Thunderstorms  Fog  Heavy snow  Heavy precipitations  Wind > 20 kt






- Airport Elevation : 13 ft
- IATA code : PVG


ZSPD - Shanghai Pudong International

CURRENT METAR :
  • 310300Z 28004MPS 260V320 9999 BKN026 25/20 Q1012 NOSIG

EXPIRED METARs :
  • 310230Z 31005MPS 280V350 9999 BKN026 25/19 Q1012 NOSIG
  • 310200Z 31004MPS 7000 BKN023 25/19 Q1012 NOSIG
  • 310130Z 30005MPS 7000 SCT016 24/20 Q1012 NOSIG
  • 310100Z 31005MPS 270V350 6000 BKN013 BKN033 23/19 Q1012 BECMG TL0200 SCT013 BKN033
  • 310030Z 31005MPS 4000 BR BKN013 BKN033 22/19 Q1012 NOSIG

TAF TAF ZSPD
Valid from the 31 at 00:00 until the 01 at 00:00 UTC


302114Z 3100/3124 30003MPS 5000 BR BKN015 TX26/3106Z TN20/3121Z
BECMG 3106/3107 12004MPS
ZSHA FIR / Asia



MET'MAP, your aeronautical weather chart ! - Copyright ORBIFLY December 2007 - Disclaimer

ORBIFLY MET'MAP TEAM :

Programming & Development : Alexandra Zaïnal
Concept & original design : Baudouin d'Aumeries
Assistance for programming : Marc-Olivier Méhu
Technical & hardware support : Manuel Goepfert

Contact : metmap@orbifly.com




SOURCES & CREDITS :

   NOAA       Earth
Advisory